sensor_id;sensor_type;location;lat;lon;timestamp;temperature;humidity
11840;DHT22;5979;50.800;4.904;2023-03-01T00:02:20;0.00;99.90
11840;DHT22;5979;50.800;4.904;2023-03-01T00:04:46;0.00;99.90
11840;DHT22;5979;50.800;4.904;2023-03-01T00:07:12;0.00;99.90
11840;DHT22;5979;50.800;4.904;2023-03-01T00:09:38;0.00;99.90
11840;DHT22;5979;50.800;4.904;2023-03-01T00:12:04;0.00;99.90
11840;DHT22;5979;50.800;4.904;2023-03-01T00:14:30;0.00;99.90
11840;DHT22;5979;50.800;4.904;2023-03-01T00:16:56;-0.10;99.90
11840;DHT22;5979;50.800;4.904;2023-03-01T00:19:21;-0.10;99.90
11840;DHT22;5979;50.800;4.904;2023-03-01T00:21:47;-0.10;99.90
11840;DHT22;5979;50.800;4.904;2023-03-01T00:24:14;-0.20;99.90
11840;DHT22;5979;50.800;4.904;2023-03-01T00:26:39;-0.20;99.90
11840;DHT22;5979;50.800;4.904;2023-03-01T00:29:05;-0.20;99.90
11840;DHT22;5979;50.800;4.904;2023-03-01T00:31:32;-0.20;99.90
11840;DHT22;5979;50.800;4.904;2023-03-01T00:34:00;-0.20;99.90
11840;DHT22;5979;50.800;4.904;2023-03-01T00:36:37;-0.20;99.90
11840;DHT22;5979;50.800;4.904;2023-03-01T00:39:04;-0.30;99.90
11840;DHT22;5979;50.800;4.904;2023-03-01T00:41:30;-0.30;99.90
11840;DHT22;5979;50.800;4.904;2023-03-01T00:43:56;-0.30;99.90
11840;DHT22;5979;50.800;4.904;2023-03-01T00:46:24;-0.30;99.90
11840;DHT22;5979;50.800;4.904;2023-03-01T00:48:51;-0.30;99.90
11840;DHT22;5979;50.800;4.904;2023-03-01T00:51:22;-0.40;99.90
11840;DHT22;5979;50.800;4.904;2023-03-01T00:53:51;-0.40;99.90
11840;DHT22;5979;50.800;4.904;2023-03-01T00:56:16;-0.50;99.90
11840;DHT22;5979;50.800;4.904;2023-03-01T00:58:42;-0.60;99.90
11840;DHT22;5979;50.800;4.904;2023-03-01T01:01:10;-0.60;99.90
11840;DHT22;5979;50.800;4.904;2023-03-01T01:03:47;-0.60;99.90
11840;DHT22;5979;50.800;4.904;2023-03-01T01:06:14;-0.60;99.90
11840;DHT22;5979;50.800;4.904;2023-03-01T01:08:40;-0.60;99.90
11840;DHT22;5979;50.800;4.904;2023-03-01T01:11:05;-0.60;99.90
11840;DHT22;5979;50.800;4.904;2023-03-01T01:13:33;-0.60;99.90
11840;DHT22;5979;50.800;4.904;2023-03-01T01:16:02;-0.60;99.90
11840;DHT22;5979;50.800;4.904;2023-03-01T01:18:28;-0.60;99.90
11840;DHT22;5979;50.800;4.904;2023-03-01T01:20:54;-0.60;99.90
11840;DHT22;5979;50.800;4.904;2023-03-01T01:23:19;-0.60;99.90
11840;DHT22;5979;50.800;4.904;2023-03-01T01:25:45;-0.60;99.90
11840;DHT22;5979;50.800;4.904;2023-03-01T01:28:10;-0.60;99.90
11840;DHT22;5979;50.800;4.904;2023-03-01T01:30:36;-0.60;99.90
11840;DHT22;5979;50.800;4.904;2023-03-01T01:33:02;-0.60;99.90
11840;DHT22;5979;50.800;4.904;2023-03-01T01:35:27;-0.60;99.90
11840;DHT22;5979;50.800;4.904;2023-03-01T01:37:53;-0.60;99.90
11840;DHT22;5979;50.800;4.904;2023-03-01T01:40:19;-0.60;99.90
11840;DHT22;5979;50.800;4.904;2023-03-01T01:42:44;-0.60;99.90
11840;DHT22;5979;50.800;4.904;2023-03-01T01:45:30;-0.60;99.90
11840;DHT22;5979;50.800;4.904;2023-03-01T01:48:12;-0.60;99.90
11840;DHT22;5979;50.800;4.904;2023-03-01T01:50:40;-0.70;99.90
11840;DHT22;5979;50.800;4.904;2023-03-01T01:53:12;-0.60;99.90
11840;DHT22;5979;50.800;4.904;2023-03-01T01:55:45;-0.70;99.90
11840;DHT22;5979;50.800;4.904;2023-03-01T01:58:15;-0.70;99.90
11840;DHT22;5979;50.800;4.904;2023-03-01T02:00:41;-0.70;99.90
11840;DHT22;5979;50.800;4.904;2023-03-01T02:03:13;-0.70;99.90
11840;DHT22;5979;50.800;4.904;2023-03-01T02:05:56;-0.80;99.90
11840;DHT22;5979;50.800;4.904;2023-03-01T02:08:26;-0.80;99.90
11840;DHT22;5979;50.800;4.904;2023-03-01T02:10:54;-0.80;99.90
11840;DHT22;5979;50.800;4.904;2023-03-01T02:13:21;-0.80;99.90
11840;DHT22;5979;50.800;4.904;2023-03-01T02:15:47;-0.90;99.90
11840;DHT22;5979;50.800;4.904;2023-03-01T02:18:16;-0.90;99.90
11840;DHT22;5979;50.800;4.904;2023-03-01T02:21:31;-0.90;99.90
11840;DHT22;5979;50.800;4.904;2023-03-01T02:23:36;-0.90;99.90
11840;DHT22;5979;50.800;4.904;2023-03-01T02:26:06;-0.80;99.90
11840;DHT22;5979;50.800;4.904;2023-03-01T02:28:38;-0.90;99.90
11840;DHT22;5979;50.800;4.904;2023-03-01T02:31:06;-0.90;99.90
11840;DHT22;5979;50.800;4.904;2023-03-01T02:33:51;-0.90;99.90
11840;DHT22;5979;50.800;4.904;2023-03-01T02:36:29;-0.90;99.90
11840;DHT22;5979;50.800;4.904;2023-03-01T02:38:58;-0.90;99.90
11840;DHT22;5979;50.800;4.904;2023-03-01T02:41:26;-1.00;99.90
11840;DHT22;5979;50.800;4.904;2023-03-01T02:43:53;-1.00;99.90
11840;DHT22;5979;50.800;4.904;2023-03-01T02:46:25;-1.00;99.90
11840;DHT22;5979;50.800;4.904;2023-03-01T02:48:54;-1.00;99.90
11840;DHT22;5979;50.800;4.904;2023-03-01T02:54:51;-1.10;99.90
11840;DHT22;5979;50.800;4.904;2023-03-01T02:57:09;-1.10;99.90
11840;DHT22;5979;50.800;4.904;2023-03-01T02:59:36;-1.10;99.90
11840;DHT22;5979;50.800;4.904;2023-03-01T03:02:06;-1.10;99.90
11840;DHT22;5979;50.800;4.904;2023-03-01T03:04:31;-1.10;99.90
11840;DHT22;5979;50.800;4.904;2023-03-01T03:06:57;-1.10;99.90
11840;DHT22;5979;50.800;4.904;2023-03-01T03:09:23;-1.10;99.90
11840;DHT22;5979;50.800;4.904;2023-03-01T03:11:49;-1.20;99.90
11840;DHT22;5979;50.800;4.904;2023-03-01T03:14:16;-1.30;99.90
11840;DHT22;5979;50.800;4.904;2023-03-01T03:16:44;-1.30;99.90
11840;DHT22;5979;50.800;4.904;2023-03-01T03:19:10;-1.30;99.90
11840;DHT22;5979;50.800;4.904;2023-03-01T03:21:36;-1.30;99.90
11840;DHT22;5979;50.800;4.904;2023-03-01T03:24:03;-1.30;99.90
11840;DHT22;5979;50.800;4.904;2023-03-01T03:26:29;-1.20;99.90
11840;DHT22;5979;50.800;4.904;2023-03-01T03:28:55;-1.20;99.90
11840;DHT22;5979;50.800;4.904;2023-03-01T03:31:21;-1.20;99.90
11840;DHT22;5979;50.800;4.904;2023-03-01T03:33:47;-1.30;99.90
11840;DHT22;5979;50.800;4.904;2023-03-01T03:36:21;-1.30;99.90
11840;DHT22;5979;50.800;4.904;2023-03-01T03:38:48;-1.30;99.90
11840;DHT22;5979;50.800;4.904;2023-03-01T03:41:14;-1.40;99.90
11840;DHT22;5979;50.800;4.904;2023-03-01T03:43:41;-1.40;99.90
11840;DHT22;5979;50.800;4.904;2023-03-01T03:46:09;-1.40;99.90
11840;DHT22;5979;50.800;4.904;2023-03-01T03:48:38;-1.40;99.90
11840;DHT22;5979;50.800;4.904;2023-03-01T03:51:04;-1.40;99.90
11840;DHT22;5979;50.800;4.904;2023-03-01T03:53:31;-1.40;99.90
11840;DHT22;5979;50.800;4.904;2023-03-01T03:55:57;-1.40;99.90
11840;DHT22;5979;50.800;4.904;2023-03-01T03:58:25;-1.40;99.90
11840;DHT22;5979;50.800;4.904;2023-03-01T04:01:00;-1.40;99.90
11840;DHT22;5979;50.800;4.904;2023-03-01T04:03:30;-1.40;99.90
11840;DHT22;5979;50.800;4.904;2023-03-01T04:06:01;-1.40;99.90
11840;DHT22;5979;50.800;4.904;2023-03-01T04:08:27;-1.40;99.90
11840;DHT22;5979;50.800;4.904;2023-03-01T04:10:59;-1.40;99.90
11840;DHT22;5979;50.800;4.904;2023-03-01T04:13:26;-1.50;99.90
11840;DHT22;5979;50.800;4.904;2023-03-01T04:15:53;-1.50;99.90
11840;DHT22;5979;50.800;4.904;2023-03-01T04:18:21;-1.50;99.90
11840;DHT22;5979;50.800;4.904;2023-03-01T04:20:47;-1.50;99.90
11840;DHT22;5979;50.800;4.904;2023-03-01T04:23:16;-1.50;99.90
11840;DHT22;5979;50.800;4.904;2023-03-01T04:25:54;-1.50;99.90
11840;DHT22;5979;50.800;4.904;2023-03-01T04:28:31;-1.50;99.90
11840;DHT22;5979;50.800;4.904;2023-03-01T04:31:13;-1.60;99.90
11840;DHT22;5979;50.800;4.904;2023-03-01T04:33:40;-1.60;99.90
11840;DHT22;5979;50.800;4.904;2023-03-01T04:36:07;-1.60;99.90
11840;DHT22;5979;50.800;4.904;2023-03-01T04:38:35;-1.60;99.90
11840;DHT22;5979;50.800;4.904;2023-03-01T04:41:03;-1.60;99.90
11840;DHT22;5979;50.800;4.904;2023-03-01T04:43:29;-1.60;99.90
11840;DHT22;5979;50.800;4.904;2023-03-01T04:46:04;-1.70;99.90
11840;DHT22;5979;50.800;4.904;2023-03-01T04:48:30;-1.70;99.90
11840;DHT22;5979;50.800;4.904;2023-03-01T04:50:58;-1.70;99.90
11840;DHT22;5979;50.800;4.904;2023-03-01T04:53:24;-1.70;99.90
11840;DHT22;5979;50.800;4.904;2023-03-01T04:55:50;-1.70;99.90
11840;DHT22;5979;50.800;4.904;2023-03-01T04:58:16;-1.70;99.90
11840;DHT22;5979;50.800;4.904;2023-03-01T05:00:42;-1.70;99.90
11840;DHT22;5979;50.800;4.904;2023-03-01T05:03:08;-1.70;99.90
11840;DHT22;5979;50.800;4.904;2023-03-01T05:05:38;-1.70;99.90
11840;DHT22;5979;50.800;4.904;2023-03-01T05:08:06;-1.70;99.90
11840;DHT22;5979;50.800;4.904;2023-03-01T05:10:35;-1.70;99.90
11840;DHT22;5979;50.800;4.904;2023-03-01T05:13:02;-1.70;99.90
11840;DHT22;5979;50.800;4.904;2023-03-01T05:15:30;-1.80;99.90
11840;DHT22;5979;50.800;4.904;2023-03-01T05:17:58;-1.80;99.90
11840;DHT22;5979;50.800;4.904;2023-03-01T05:20:29;-1.80;99.90
11840;DHT22;5979;50.800;4.904;2023-03-01T05:22:59;-1.80;99.90
11840;DHT22;5979;50.800;4.904;2023-03-01T05:25:26;-1.80;99.90
11840;DHT22;5979;50.800;4.904;2023-03-01T05:27:51;-1.80;99.90
11840;DHT22;5979;50.800;4.904;2023-03-01T05:30:18;-1.80;99.90
11840;DHT22;5979;50.800;4.904;2023-03-01T05:32:48;-1.80;99.90
11840;DHT22;5979;50.800;4.904;2023-03-01T05:35:16;-1.80;99.90
11840;DHT22;5979;50.800;4.904;2023-03-01T05:37:44;-1.80;99.90
11840;DHT22;5979;50.800;4.904;2023-03-01T05:40:13;-1.80;99.90
11840;DHT22;5979;50.800;4.904;2023-03-01T05:42:53;-1.80;99.90
11840;DHT22;5979;50.800;4.904;2023-03-01T05:45:19;-1.80;99.90
11840;DHT22;5979;50.800;4.904;2023-03-01T05:47:47;-1.90;99.90
11840;DHT22;5979;50.800;4.904;2023-03-01T05:50:18;-1.90;99.90
11840;DHT22;5979;50.800;4.904;2023-03-01T05:52:52;-1.90;99.90
11840;DHT22;5979;50.800;4.904;2023-03-01T05:55:20;-1.90;99.90
11840;DHT22;5979;50.800;4.904;2023-03-01T05:57:46;-1.90;99.90
11840;DHT22;5979;50.800;4.904;2023-03-01T06:00:14;-1.90;99.90
11840;DHT22;5979;50.800;4.904;2023-03-01T06:02:40;-2.00;99.90
11840;DHT22;5979;50.800;4.904;2023-03-01T06:05:08;-2.00;99.90
11840;DHT22;5979;50.800;4.904;2023-03-01T06:07:34;-2.00;99.90
11840;DHT22;5979;50.800;4.904;2023-03-01T06:10:02;-2.00;99.90
11840;DHT22;5979;50.800;4.904;2023-03-01T06:12:31;-2.00;99.90
11840;DHT22;5979;50.800;4.904;2023-03-01T06:14:56;-2.10;99.90
11840;DHT22;5979;50.800;4.904;2023-03-01T06:17:22;-2.10;99.90
11840;DHT22;5979;50.800;4.904;2023-03-01T06:19:48;-2.10;99.90
11840;DHT22;5979;50.800;4.904;2023-03-01T06:22:13;-2.20;99.90
11840;DHT22;5979;50.800;4.904;2023-03-01T06:24:39;-2.20;99.90
11840;DHT22;5979;50.800;4.904;2023-03-01T06:27:05;-2.20;99.90
11840;DHT22;5979;50.800;4.904;2023-03-01T06:29:30;-2.20;99.90
11840;DHT22;5979;50.800;4.904;2023-03-01T06:31:56;-2.20;99.90
11840;DHT22;5979;50.800;4.904;2023-03-01T06:34:22;-2.10;99.90
11840;DHT22;5979;50.800;4.904;2023-03-01T06:36:47;-2.10;99.90
11840;DHT22;5979;50.800;4.904;2023-03-01T06:39:13;-2.10;99.90
11840;DHT22;5979;50.800;4.904;2023-03-01T06:41:39;-2.10;99.90
11840;DHT22;5979;50.800;4.904;2023-03-01T06:44:05;-2.00;99.90
11840;DHT22;5979;50.800;4.904;2023-03-01T06:46:30;-2.00;99.90
11840;DHT22;5979;50.800;4.904;2023-03-01T06:48:56;-1.90;99.90
11840;DHT22;5979;50.800;4.904;2023-03-01T06:51:22;-1.70;99.90
11840;DHT22;5979;50.800;4.904;2023-03-01T06:53:47;-1.60;99.90
11840;DHT22;5979;50.800;4.904;2023-03-01T06:56:13;-1.50;99.90
11840;DHT22;5979;50.800;4.904;2023-03-01T06:58:38;-1.40;99.90
11840;DHT22;5979;50.800;4.904;2023-03-01T07:01:08;-1.40;99.90
11840;DHT22;5979;50.800;4.904;2023-03-01T07:03:34;-1.20;99.90
11840;DHT22;5979;50.800;4.904;2023-03-01T07:05:59;-1.10;99.90
11840;DHT22;5979;50.800;4.904;2023-03-01T07:08:25;-1.00;99.90
11840;DHT22;5979;50.800;4.904;2023-03-01T07:10:58;-0.90;99.90
11840;DHT22;5979;50.800;4.904;2023-03-01T07:13:24;-0.90;99.90
11840;DHT22;5979;50.800;4.904;2023-03-01T07:15:49;-0.70;99.90
11840;DHT22;5979;50.800;4.904;2023-03-01T07:18:15;-0.60;99.90
11840;DHT22;5979;50.800;4.904;2023-03-01T07:20:41;-0.40;99.90
11840;DHT22;5979;50.800;4.904;2023-03-01T07:23:07;-0.30;99.90
11840;DHT22;5979;50.800;4.904;2023-03-01T07:25:33;-0.20;99.90
11840;DHT22;5979;50.800;4.904;2023-03-01T07:27:58;-0.10;99.90
11840;DHT22;5979;50.800;4.904;2023-03-01T07:30:24;0.00;99.90
11840;DHT22;5979;50.800;4.904;2023-03-01T07:32:54;0.10;99.90
11840;DHT22;5979;50.800;4.904;2023-03-01T07:35:21;0.20;99.90
11840;DHT22;5979;50.800;4.904;2023-03-01T07:37:46;0.10;99.90
11840;DHT22;5979;50.800;4.904;2023-03-01T07:40:12;0.20;99.90
11840;DHT22;5979;50.800;4.904;2023-03-01T07:42:38;0.30;99.90
11840;DHT22;5979;50.800;4.904;2023-03-01T07:45:05;0.30;99.90
11840;DHT22;5979;50.800;4.904;2023-03-01T07:47:31;0.40;99.90
11840;DHT22;5979;50.800;4.904;2023-03-01T07:49:57;0.50;99.90
11840;DHT22;5979;50.800;4.904;2023-03-01T07:52:22;0.40;99.90
11840;DHT22;5979;50.800;4.904;2023-03-01T07:54:48;0.40;99.90
11840;DHT22;5979;50.800;4.904;2023-03-01T07:57:14;0.60;99.90
11840;DHT22;5979;50.800;4.904;2023-03-01T07:59:40;0.50;99.90
11840;DHT22;5979;50.800;4.904;2023-03-01T08:02:06;0.50;99.90
11840;DHT22;5979;50.800;4.904;2023-03-01T08:04:32;0.40;99.90
11840;DHT22;5979;50.800;4.904;2023-03-01T08:06:58;0.50;99.90
11840;DHT22;5979;50.800;4.904;2023-03-01T08:09:24;0.50;99.90
11840;DHT22;5979;50.800;4.904;2023-03-01T08:11:50;0.70;99.90
11840;DHT22;5979;50.800;4.904;2023-03-01T08:14:16;0.90;99.90
11840;DHT22;5979;50.800;4.904;2023-03-01T08:16:42;1.00;99.90
11840;DHT22;5979;50.800;4.904;2023-03-01T08:19:09;0.90;99.90
11840;DHT22;5979;50.800;4.904;2023-03-01T08:21:36;1.10;99.90
11840;DHT22;5979;50.800;4.904;2023-03-01T08:24:02;0.90;99.90
11840;DHT22;5979;50.800;4.904;2023-03-01T08:26:28;1.10;99.90
11840;DHT22;5979;50.800;4.904;2023-03-01T08:28:54;1.20;99.90
11840;DHT22;5979;50.800;4.904;2023-03-01T08:31:25;1.50;99.90
11840;DHT22;5979;50.800;4.904;2023-03-01T08:33:54;1.70;99.90
11840;DHT22;5979;50.800;4.904;2023-03-01T08:36:26;1.80;99.90
11840;DHT22;5979;50.800;4.904;2023-03-01T08:38:52;2.00;99.90
11840;DHT22;5979;50.800;4.904;2023-03-01T08:41:18;1.70;99.90
11840;DHT22;5979;50.800;4.904;2023-03-01T08:43:43;1.70;99.90
11840;DHT22;5979;50.800;4.904;2023-03-01T08:46:10;1.80;99.90
11840;DHT22;5979;50.800;4.904;2023-03-01T08:48:35;1.80;99.90
11840;DHT22;5979;50.800;4.904;2023-03-01T08:51:15;1.90;99.90
11840;DHT22;5979;50.800;4.904;2023-03-01T08:53:42;1.70;99.90
11840;DHT22;5979;50.800;4.904;2023-03-01T08:56:09;1.80;99.90
11840;DHT22;5979;50.800;4.904;2023-03-01T08:58:34;1.90;99.90
11840;DHT22;5979;50.800;4.904;2023-03-01T09:01:00;2.00;99.90
11840;DHT22;5979;50.800;4.904;2023-03-01T09:03:26;2.20;99.90
11840;DHT22;5979;50.800;4.904;2023-03-01T09:05:53;2.20;99.90
11840;DHT22;5979;50.800;4.904;2023-03-01T09:08:19;2.20;99.90
11840;DHT22;5979;50.800;4.904;2023-03-01T09:10:45;2.20;99.90
11840;DHT22;5979;50.800;4.904;2023-03-01T09:13:11;2.20;99.90
11840;DHT22;5979;50.800;4.904;2023-03-01T09:15:38;2.20;99.90
11840;DHT22;5979;50.800;4.904;2023-03-01T09:18:04;2.50;99.90
11840;DHT22;5979;50.800;4.904;2023-03-01T09:20:30;2.40;99.90
11840;DHT22;5979;50.800;4.904;2023-03-01T09:22:57;2.50;99.90
11840;DHT22;5979;50.800;4.904;2023-03-01T09:25:23;2.50;99.90
11840;DHT22;5979;50.800;4.904;2023-03-01T09:27:52;2.70;99.90
11840;DHT22;5979;50.800;4.904;2023-03-01T09:30:18;2.80;99.90
11840;DHT22;5979;50.800;4.904;2023-03-01T09:32:44;2.90;99.90
11840;DHT22;5979;50.800;4.904;2023-03-01T09:35:11;2.80;99.90
11840;DHT22;5979;50.800;4.904;2023-03-01T09:37:38;2.90;99.90
11840;DHT22;5979;50.800;4.904;2023-03-01T09:40:09;3.00;99.90
11840;DHT22;5979;50.800;4.904;2023-03-01T09:42:48;2.90;99.90
11840;DHT22;5979;50.800;4.904;2023-03-01T09:47:54;2.80;99.90
11840;DHT22;5979;50.800;4.904;2023-03-01T09:50:21;2.90;99.90
11840;DHT22;5979;50.800;4.904;2023-03-01T09:53:05;3.10;99.90
11840;DHT22;5979;50.800;4.904;2023-03-01T10:01:37;3.60;99.90
11840;DHT22;5979;50.800;4.904;2023-03-01T10:04:45;3.70;99.90
11840;DHT22;5979;50.800;4.904;2023-03-01T10:07:42;3.80;99.90
11840;DHT22;5979;50.800;4.904;2023-03-01T10:10:37;3.90;99.90
11840;DHT22;5979;50.800;4.904;2023-03-01T10:13:20;4.00;99.90
11840;DHT22;5979;50.800;4.904;2023-03-01T10:15:51;3.90;99.90
11840;DHT22;5979;50.800;4.904;2023-03-01T10:18:26;3.80;99.90
11840;DHT22;5979;50.800;4.904;2023-03-01T10:20:54;3.90;99.90
11840;DHT22;5979;50.800;4.904;2023-03-01T10:23:22;4.00;99.90
11840;DHT22;5979;50.800;4.904;2023-03-01T10:31:17;3.90;99.90
11840;DHT22;5979;50.800;4.904;2023-03-01T10:33:44;4.00;99.90
11840;DHT22;5979;50.800;4.904;2023-03-01T10:36:10;4.00;99.90
11840;DHT22;5979;50.800;4.904;2023-03-01T10:41:17;4.30;99.90
11840;DHT22;5979;50.800;4.904;2023-03-01T10:43:44;4.30;99.90
11840;DHT22;5979;50.800;4.904;2023-03-01T10:49:16;4.40;99.90
11840;DHT22;5979;50.800;4.904;2023-03-01T10:51:45;4.60;99.90
11840;DHT22;5979;50.800;4.904;2023-03-01T10:54:27;4.50;99.90
11840;DHT22;5979;50.800;4.904;2023-03-01T10:56:59;4.60;99.90
11840;DHT22;5979;50.800;4.904;2023-03-01T10:59:32;4.70;99.90
11840;DHT22;5979;50.800;4.904;2023-03-01T11:02:22;4.70;99.90
11840;DHT22;5979;50.800;4.904;2023-03-01T11:07:54;4.80;99.90
11840;DHT22;5979;50.800;4.904;2023-03-01T11:10:35;4.70;99.90
11840;DHT22;5979;50.800;4.904;2023-03-01T11:13:16;4.70;99.90
11840;DHT22;5979;50.800;4.904;2023-03-01T11:15:43;4.80;99.90
11840;DHT22;5979;50.800;4.904;2023-03-01T11:18:23;4.80;99.90
11840;DHT22;5979;50.800;4.904;2023-03-01T11:20:51;4.90;99.90
11840;DHT22;5979;50.800;4.904;2023-03-01T11:23:18;5.00;99.90
11840;DHT22;5979;50.800;4.904;2023-03-01T11:26:05;5.10;99.90
11840;DHT22;5979;50.800;4.904;2023-03-01T11:28:36;5.10;99.90
11840;DHT22;5979;50.800;4.904;2023-03-01T11:31:06;5.10;99.90
11840;DHT22;5979;50.800;4.904;2023-03-01T11:38:50;5.10;99.90
11840;DHT22;5979;50.800;4.904;2023-03-01T11:41:20;5.20;99.90
11840;DHT22;5979;50.800;4.904;2023-03-01T11:43:59;5.20;99.90
11840;DHT22;5979;50.800;4.904;2023-03-01T11:46:36;5.20;99.90
11840;DHT22;5979;50.800;4.904;2023-03-01T11:49:16;5.30;99.90
11840;DHT22;5979;50.800;4.904;2023-03-01T12:00:17;5.30;99.90
11840;DHT22;5979;50.800;4.904;2023-03-01T12:08:35;5.30;99.90
11840;DHT22;5979;50.800;4.904;2023-03-01T12:24:53;5.50;99.90
11840;DHT22;5979;50.800;4.904;2023-03-01T12:36:56;5.70;99.90
11840;DHT22;5979;50.800;4.904;2023-03-01T12:39:39;5.70;99.90
11840;DHT22;5979;50.800;4.904;2023-03-01T12:42:35;5.70;99.90
11840;DHT22;5979;50.800;4.904;2023-03-01T12:48:20;5.70;99.90
11840;DHT22;5979;50.800;4.904;2023-03-01T12:50:54;5.70;99.90
11840;DHT22;5979;50.800;4.904;2023-03-01T12:53:34;5.60;99.90
11840;DHT22;5979;50.800;4.904;2023-03-01T12:56:05;5.50;99.90
11840;DHT22;5979;50.800;4.904;2023-03-01T13:01:29;5.60;99.90
11840;DHT22;5979;50.800;4.904;2023-03-01T13:04:21;5.60;99.90
11840;DHT22;5979;50.800;4.904;2023-03-01T13:07:19;5.60;99.90
11840;DHT22;5979;50.800;4.904;2023-03-01T13:12:43;5.50;99.90
11840;DHT22;5979;50.800;4.904;2023-03-01T13:28:57;6.00;99.90
11840;DHT22;5979;50.800;4.904;2023-03-01T13:33:55;6.00;99.90
11840;DHT22;5979;50.800;4.904;2023-03-01T13:38:59;6.00;99.90
11840;DHT22;5979;50.800;4.904;2023-03-01T13:44:25;6.10;99.90
11840;DHT22;5979;50.800;4.904;2023-03-01T13:47:03;6.20;99.90
11840;DHT22;5979;50.800;4.904;2023-03-01T13:49:47;6.20;99.90
11840;DHT22;5979;50.800;4.904;2023-03-01T13:55:37;6.10;99.90
11840;DHT22;5979;50.800;4.904;2023-03-01T13:58:16;6.00;99.90
11840;DHT22;5979;50.800;4.904;2023-03-01T14:00:43;6.10;99.90
11840;DHT22;5979;50.800;4.904;2023-03-01T14:05:35;6.20;99.90
11840;DHT22;5979;50.800;4.904;2023-03-01T14:08:14;6.30;99.90
11840;DHT22;5979;50.800;4.904;2023-03-01T14:11:00;6.30;99.90
11840;DHT22;5979;50.800;4.904;2023-03-01T14:19:18;6.20;99.90
11840;DHT22;5979;50.800;4.904;2023-03-01T14:21:46;6.30;99.90
11840;DHT22;5979;50.800;4.904;2023-03-01T14:24:21;6.40;99.90
11840;DHT22;5979;50.800;4.904;2023-03-01T14:26:49;6.50;99.90
11840;DHT22;5979;50.800;4.904;2023-03-01T14:29:35;6.50;99.90
11840;DHT22;5979;50.800;4.904;2023-03-01T14:32:22;6.50;99.90
11840;DHT22;5979;50.800;4.904;2023-03-01T14:34:50;6.50;99.90
11840;DHT22;5979;50.800;4.904;2023-03-01T14:37:27;6.50;99.90
11840;DHT22;5979;50.800;4.904;2023-03-01T14:39:53;6.50;99.90
11840;DHT22;5979;50.800;4.904;2023-03-01T14:42:21;6.40;99.90
11840;DHT22;5979;50.800;4.904;2023-03-01T14:44:51;6.30;99.90
11840;DHT22;5979;50.800;4.904;2023-03-01T14:47:28;6.40;99.90
11840;DHT22;5979;50.800;4.904;2023-03-01T14:50:01;6.50;99.90
11840;DHT22;5979;50.800;4.904;2023-03-01T14:52:36;6.40;99.90
11840;DHT22;5979;50.800;4.904;2023-03-01T14:55:13;6.40;99.90
11840;DHT22;5979;50.800;4.904;2023-03-01T14:57:44;6.50;99.90
11840;DHT22;5979;50.800;4.904;2023-03-01T15:00:20;6.50;99.90
11840;DHT22;5979;50.800;4.904;2023-03-01T15:02:48;6.50;99.90
11840;DHT22;5979;50.800;4.904;2023-03-01T15:05:15;6.50;99.90
11840;DHT22;5979;50.800;4.904;2023-03-01T15:07:44;6.50;99.90
11840;DHT22;5979;50.800;4.904;2023-03-01T15:10:26;6.50;99.90
11840;DHT22;5979;50.800;4.904;2023-03-01T15:12:52;6.40;99.90
11840;DHT22;5979;50.800;4.904;2023-03-01T15:15:37;6.40;99.90
11840;DHT22;5979;50.800;4.904;2023-03-01T15:18:26;6.40;99.90
11840;DHT22;5979;50.800;4.904;2023-03-01T15:20:52;6.40;99.90
11840;DHT22;5979;50.800;4.904;2023-03-01T15:23:24;6.40;99.90
11840;DHT22;5979;50.800;4.904;2023-03-01T15:25:52;6.40;99.90
11840;DHT22;5979;50.800;4.904;2023-03-01T15:28:40;6.40;99.90
11840;DHT22;5979;50.800;4.904;2023-03-01T15:31:22;6.40;99.90
11840;DHT22;5979;50.800;4.904;2023-03-01T15:33:48;6.30;99.90
11840;DHT22;5979;50.800;4.904;2023-03-01T15:36:42;6.30;99.90
11840;DHT22;5979;50.800;4.904;2023-03-01T15:39:53;6.30;99.90
11840;DHT22;5979;50.800;4.904;2023-03-01T15:47:36;6.30;99.90
11840;DHT22;5979;50.800;4.904;2023-03-01T15:50:04;6.30;99.90
11840;DHT22;5979;50.800;4.904;2023-03-01T15:52:40;6.30;99.90
11840;DHT22;5979;50.800;4.904;2023-03-01T15:55:16;6.30;99.90
11840;DHT22;5979;50.800;4.904;2023-03-01T15:57:42;6.30;99.90
11840;DHT22;5979;50.800;4.904;2023-03-01T16:00:12;6.30;99.90
11840;DHT22;5979;50.800;4.904;2023-03-01T16:02:40;6.20;99.90
11840;DHT22;5979;50.800;4.904;2023-03-01T16:05:17;6.20;99.90
11840;DHT22;5979;50.800;4.904;2023-03-01T16:07:43;6.20;99.90
11840;DHT22;5979;50.800;4.904;2023-03-01T16:10:09;6.20;99.90
11840;DHT22;5979;50.800;4.904;2023-03-01T16:12:35;6.20;99.90
11840;DHT22;5979;50.800;4.904;2023-03-01T16:15:01;6.20;99.90
11840;DHT22;5979;50.800;4.904;2023-03-01T16:17:26;6.20;99.90
11840;DHT22;5979;50.800;4.904;2023-03-01T16:19:52;6.10;99.90
11840;DHT22;5979;50.800;4.904;2023-03-01T16:22:17;6.10;99.90
11840;DHT22;5979;50.800;4.904;2023-03-01T16:24:46;6.00;99.90
11840;DHT22;5979;50.800;4.904;2023-03-01T16:27:11;6.00;99.90
11840;DHT22;5979;50.800;4.904;2023-03-01T16:29:37;6.00;99.90
11840;DHT22;5979;50.800;4.904;2023-03-01T16:32:03;6.10;99.90
11840;DHT22;5979;50.800;4.904;2023-03-01T16:34:29;6.00;99.90
11840;DHT22;5979;50.800;4.904;2023-03-01T16:36:54;6.00;99.90
11840;DHT22;5979;50.800;4.904;2023-03-01T16:39:20;5.90;99.90
11840;DHT22;5979;50.800;4.904;2023-03-01T16:41:46;5.90;99.90
11840;DHT22;5979;50.800;4.904;2023-03-01T16:44:11;5.80;99.90
11840;DHT22;5979;50.800;4.904;2023-03-01T16:46:37;5.70;99.90
11840;DHT22;5979;50.800;4.904;2023-03-01T16:49:02;5.70;99.90
11840;DHT22;5979;50.800;4.904;2023-03-01T16:51:28;5.70;99.90
11840;DHT22;5979;50.800;4.904;2023-03-01T16:53:55;5.70;99.90
11840;DHT22;5979;50.800;4.904;2023-03-01T16:56:20;5.60;99.90
11840;DHT22;5979;50.800;4.904;2023-03-01T16:58:47;5.50;99.90
11840;DHT22;5979;50.800;4.904;2023-03-01T17:01:16;5.50;99.90
11840;DHT22;5979;50.800;4.904;2023-03-01T17:03:42;5.40;99.90
11840;DHT22;5979;50.800;4.904;2023-03-01T17:06:13;5.40;99.90
11840;DHT22;5979;50.800;4.904;2023-03-01T17:08:40;5.30;99.90
11840;DHT22;5979;50.800;4.904;2023-03-01T17:11:17;5.30;99.90
11840;DHT22;5979;50.800;4.904;2023-03-01T17:13:43;5.20;99.90
11840;DHT22;5979;50.800;4.904;2023-03-01T17:16:12;5.10;99.90
11840;DHT22;5979;50.800;4.904;2023-03-01T17:18:38;5.00;99.90
11840;DHT22;5979;50.800;4.904;2023-03-01T17:21:06;4.90;99.90
11840;DHT22;5979;50.800;4.904;2023-03-01T17:23:32;4.90;99.90
11840;DHT22;5979;50.800;4.904;2023-03-01T17:25:59;4.90;99.90
11840;DHT22;5979;50.800;4.904;2023-03-01T17:28:28;4.90;99.90
11840;DHT22;5979;50.800;4.904;2023-03-01T17:30:54;4.80;99.90
11840;DHT22;5979;50.800;4.904;2023-03-01T17:33:20;4.70;99.90
11840;DHT22;5979;50.800;4.904;2023-03-01T17:35:47;4.60;99.90
11840;DHT22;5979;50.800;4.904;2023-03-01T17:38:16;4.60;99.90
11840;DHT22;5979;50.800;4.904;2023-03-01T17:40:43;4.60;99.90
11840;DHT22;5979;50.800;4.904;2023-03-01T17:43:11;4.50;99.90
11840;DHT22;5979;50.800;4.904;2023-03-01T17:45:38;4.50;99.90
11840;DHT22;5979;50.800;4.904;2023-03-01T17:48:05;4.40;99.90
11840;DHT22;5979;50.800;4.904;2023-03-01T17:50:31;4.40;99.90
11840;DHT22;5979;50.800;4.904;2023-03-01T17:52:57;4.40;99.90
11840;DHT22;5979;50.800;4.904;2023-03-01T17:55:23;4.40;99.90
11840;DHT22;5979;50.800;4.904;2023-03-01T17:57:49;4.40;99.90
11840;DHT22;5979;50.800;4.904;2023-03-01T18:00:15;4.30;99.90
11840;DHT22;5979;50.800;4.904;2023-03-01T18:02:42;4.20;99.90
11840;DHT22;5979;50.800;4.904;2023-03-01T18:05:09;4.20;99.90
11840;DHT22;5979;50.800;4.904;2023-03-01T18:07:35;4.10;99.90